sensor_id;sensor_type;location;lat;lon;timestamp;P1;durP1;ratioP1;P2;durP2;ratioP2
45548;SDS011;31270;48.328;10.096;2023-04-01T00:02:06;4.00;;;1.20;;
45548;SDS011;31270;48.328;10.096;2023-04-01T00:04:33;3.47;;;1.20;;
45548;SDS011;31270;48.328;10.096;2023-04-01T00:06:58;1.70;;;1.50;;
45548;SDS011;31270;48.328;10.096;2023-04-01T00:09:25;1.90;;;1.30;;
45548;SDS011;31270;48.328;10.096;2023-04-01T00:11:51;3.43;;;1.20;;
45548;SDS011;31270;48.328;10.096;2023-04-01T00:14:16;3.23;;;1.43;;
45548;SDS011;31270;48.328;10.096;2023-04-01T00:16:42;4.50;;;1.70;;
45548;SDS011;31270;48.328;10.096;2023-04-01T00:19:08;3.03;;;1.10;;
45548;SDS011;31270;48.328;10.096;2023-04-01T00:21:34;4.27;;;1.33;;
45548;SDS011;31270;48.328;10.096;2023-04-01T00:24:00;1.63;;;1.30;;
45548;SDS011;31270;48.328;10.096;2023-04-01T00:26:26;3.67;;;1.30;;
45548;SDS011;31270;48.328;10.096;2023-04-01T00:28:52;6.43;;;1.13;;
45548;SDS011;31270;48.328;10.096;2023-04-01T00:31:18;2.20;;;1.20;;
45548;SDS011;31270;48.328;10.096;2023-04-01T00:33:44;2.03;;;1.30;;
45548;SDS011;31270;48.328;10.096;2023-04-01T00:36:14;4.23;;;1.20;;
45548;SDS011;31270;48.328;10.096;2023-04-01T00:38:41;4.13;;;1.33;;
45548;SDS011;31270;48.328;10.096;2023-04-01T00:41:08;5.20;;;1.10;;
45548;SDS011;31270;48.328;10.096;2023-04-01T00:43:40;1.63;;;1.00;;
45548;SDS011;31270;48.328;10.096;2023-04-01T00:46:07;3.23;;;1.23;;
45548;SDS011;31270;48.328;10.096;2023-04-01T00:48:33;2.53;;;1.17;;
45548;SDS011;31270;48.328;10.096;2023-04-01T00:53:31;4.37;;;1.20;;
45548;SDS011;31270;48.328;10.096;2023-04-01T00:56:00;1.50;;;1.40;;
45548;SDS011;31270;48.328;10.096;2023-04-01T00:58:31;2.00;;;1.20;;
45548;SDS011;31270;48.328;10.096;2023-04-01T01:01:00;2.50;;;1.07;;
45548;SDS011;31270;48.328;10.096;2023-04-01T01:03:26;1.33;;;1.23;;
45548;SDS011;31270;48.328;10.096;2023-04-01T01:05:56;2.17;;;1.20;;
45548;SDS011;31270;48.328;10.096;2023-04-01T01:08:37;3.27;;;0.97;;
45548;SDS011;31270;48.328;10.096;2023-04-01T01:11:15;3.93;;;1.20;;
45548;SDS011;31270;48.328;10.096;2023-04-01T01:13:57;2.50;;;1.10;;
45548;SDS011;31270;48.328;10.096;2023-04-01T01:16:29;2.43;;;1.00;;
45548;SDS011;31270;48.328;10.096;2023-04-01T01:19:24;1.63;;;0.90;;
45548;SDS011;31270;48.328;10.096;2023-04-01T01:27:37;2.23;;;1.03;;
45548;SDS011;31270;48.328;10.096;2023-04-01T01:30:20;1.70;;;0.80;;
45548;SDS011;31270;48.328;10.096;2023-04-01T01:34:02;1.07;;;0.90;;
45548;SDS011;31270;48.328;10.096;2023-04-01T01:36:09;2.47;;;1.00;;
45548;SDS011;31270;48.328;10.096;2023-04-01T01:38:38;0.90;;;0.83;;
45548;SDS011;31270;48.328;10.096;2023-04-01T01:41:05;2.50;;;1.03;;
45548;SDS011;31270;48.328;10.096;2023-04-01T01:43:33;1.37;;;0.90;;
45548;SDS011;31270;48.328;10.096;2023-04-01T01:46:07;1.90;;;0.83;;
45548;SDS011;31270;48.328;10.096;2023-04-01T01:48:37;1.80;;;0.97;;
45548;SDS011;31270;48.328;10.096;2023-04-01T01:51:05;1.33;;;0.80;;
45548;SDS011;31270;48.328;10.096;2023-04-01T01:53:31;2.70;;;1.10;;
45548;SDS011;31270;48.328;10.096;2023-04-01T01:55:57;1.20;;;1.07;;
45548;SDS011;31270;48.328;10.096;2023-04-01T02:01:06;1.57;;;0.90;;
45548;SDS011;31270;48.328;10.096;2023-04-01T02:03:37;2.77;;;1.00;;
45548;SDS011;31270;48.328;10.096;2023-04-01T02:06:07;0.77;;;0.73;;
45548;SDS011;31270;48.328;10.096;2023-04-01T02:11:16;1.00;;;0.90;;
45548;SDS011;31270;48.328;10.096;2023-04-01T02:14:01;1.93;;;1.10;;
45548;SDS011;31270;48.328;10.096;2023-04-01T02:16:36;1.23;;;0.90;;
45548;SDS011;31270;48.328;10.096;2023-04-01T02:19:08;1.50;;;0.83;;
45548;SDS011;31270;48.328;10.096;2023-04-01T02:21:39;1.87;;;0.83;;
45548;SDS011;31270;48.328;10.096;2023-04-01T02:24:09;0.90;;;0.90;;
45548;SDS011;31270;48.328;10.096;2023-04-01T02:26:40;0.70;;;0.70;;
45548;SDS011;31270;48.328;10.096;2023-04-01T02:29:16;1.83;;;1.00;;
45548;SDS011;31270;48.328;10.096;2023-04-01T02:31:44;0.87;;;0.87;;
45548;SDS011;31270;48.328;10.096;2023-04-01T02:34:22;0.87;;;0.87;;
45548;SDS011;31270;48.328;10.096;2023-04-01T02:36:49;0.90;;;0.70;;
45548;SDS011;31270;48.328;10.096;2023-04-01T02:39:16;1.57;;;0.90;;
45548;SDS011;31270;48.328;10.096;2023-04-01T02:41:44;1.30;;;0.80;;
45548;SDS011;31270;48.328;10.096;2023-04-01T02:44:11;1.37;;;0.80;;
45548;SDS011;31270;48.328;10.096;2023-04-01T02:46:47;0.60;;;0.60;;
45548;SDS011;31270;48.328;10.096;2023-04-01T02:49:23;1.37;;;0.70;;
45548;SDS011;31270;48.328;10.096;2023-04-01T02:51:58;1.67;;;0.80;;
45548;SDS011;31270;48.328;10.096;2023-04-01T02:54:25;0.80;;;0.80;;
45548;SDS011;31270;48.328;10.096;2023-04-01T02:56:51;3.27;;;0.70;;
45548;SDS011;31270;48.328;10.096;2023-04-01T02:59:16;0.77;;;0.63;;
45548;SDS011;31270;48.328;10.096;2023-04-01T03:01:42;1.17;;;0.80;;
45548;SDS011;31270;48.328;10.096;2023-04-01T03:04:08;0.80;;;0.80;;
45548;SDS011;31270;48.328;10.096;2023-04-01T03:06:36;0.80;;;0.80;;
45548;SDS011;31270;48.328;10.096;2023-04-01T03:09:02;1.03;;;0.70;;
45548;SDS011;31270;48.328;10.096;2023-04-01T03:11:28;1.27;;;0.90;;
45548;SDS011;31270;48.328;10.096;2023-04-01T03:13:54;0.40;;;0.40;;
45548;SDS011;31270;48.328;10.096;2023-04-01T03:16:19;0.83;;;0.70;;
45548;SDS011;31270;48.328;10.096;2023-04-01T03:18:45;0.70;;;0.70;;
45548;SDS011;31270;48.328;10.096;2023-04-01T03:21:14;3.23;;;1.10;;
45548;SDS011;31270;48.328;10.096;2023-04-01T03:23:45;1.87;;;1.47;;
45548;SDS011;31270;48.328;10.096;2023-04-01T03:26:11;1.20;;;1.03;;
45548;SDS011;31270;48.328;10.096;2023-04-01T03:28:37;1.20;;;1.03;;
45548;SDS011;31270;48.328;10.096;2023-04-01T03:31:02;1.17;;;0.87;;
45548;SDS011;31270;48.328;10.096;2023-04-01T03:33:28;1.90;;;1.60;;
45548;SDS011;31270;48.328;10.096;2023-04-01T03:35:53;0.93;;;0.93;;
45548;SDS011;31270;48.328;10.096;2023-04-01T03:38:19;1.47;;;1.37;;
45548;SDS011;31270;48.328;10.096;2023-04-01T03:40:45;1.50;;;1.40;;
45548;SDS011;31270;48.328;10.096;2023-04-01T03:43:10;3.93;;;2.17;;
45548;SDS011;31270;48.328;10.096;2023-04-01T03:45:44;1.77;;;1.00;;
45548;SDS011;31270;48.328;10.096;2023-04-01T03:48:14;1.13;;;1.07;;
45548;SDS011;31270;48.328;10.096;2023-04-01T03:50:40;0.80;;;0.80;;
45548;SDS011;31270;48.328;10.096;2023-04-01T03:53:06;1.53;;;0.70;;
45548;SDS011;31270;48.328;10.096;2023-04-01T03:55:32;1.33;;;0.80;;
45548;SDS011;31270;48.328;10.096;2023-04-01T03:58:00;1.70;;;0.90;;
45548;SDS011;31270;48.328;10.096;2023-04-01T04:00:27;1.03;;;0.93;;
45548;SDS011;31270;48.328;10.096;2023-04-01T04:02:55;1.13;;;0.90;;
45548;SDS011;31270;48.328;10.096;2023-04-01T04:05:22;1.70;;;1.13;;
45548;SDS011;31270;48.328;10.096;2023-04-01T04:07:48;1.40;;;0.97;;
45548;SDS011;31270;48.328;10.096;2023-04-01T04:10:14;1.50;;;1.00;;
45548;SDS011;31270;48.328;10.096;2023-04-01T04:12:40;2.90;;;1.37;;
45548;SDS011;31270;48.328;10.096;2023-04-01T04:15:06;1.20;;;1.10;;
45548;SDS011;31270;48.328;10.096;2023-04-01T04:17:32;1.73;;;1.20;;
45548;SDS011;31270;48.328;10.096;2023-04-01T04:19:58;1.27;;;1.00;;
45548;SDS011;31270;48.328;10.096;2023-04-01T04:22:23;1.63;;;1.20;;
45548;SDS011;31270;48.328;10.096;2023-04-01T04:24:49;2.03;;;1.10;;
45548;SDS011;31270;48.328;10.096;2023-04-01T04:27:15;1.27;;;1.07;;
45548;SDS011;31270;48.328;10.096;2023-04-01T04:29:40;1.97;;;1.23;;
45548;SDS011;31270;48.328;10.096;2023-04-01T04:32:06;1.13;;;0.90;;
45548;SDS011;31270;48.328;10.096;2023-04-01T04:34:31;1.50;;;0.87;;
45548;SDS011;31270;48.328;10.096;2023-04-01T04:36:57;1.33;;;0.90;;
45548;SDS011;31270;48.328;10.096;2023-04-01T04:39:23;1.83;;;1.13;;
45548;SDS011;31270;48.328;10.096;2023-04-01T04:41:49;2.60;;;1.10;;
45548;SDS011;31270;48.328;10.096;2023-04-01T04:44:14;2.43;;;1.23;;
45548;SDS011;31270;48.328;10.096;2023-04-01T04:46:40;1.70;;;1.07;;
45548;SDS011;31270;48.328;10.096;2023-04-01T04:49:06;3.97;;;1.20;;
45548;SDS011;31270;48.328;10.096;2023-04-01T04:51:31;0.97;;;0.90;;
45548;SDS011;31270;48.328;10.096;2023-04-01T04:54:01;2.90;;;1.00;;
45548;SDS011;31270;48.328;10.096;2023-04-01T04:56:30;1.10;;;1.00;;
45548;SDS011;31270;48.328;10.096;2023-04-01T04:58:56;2.00;;;1.23;;
45548;SDS011;31270;48.328;10.096;2023-04-01T05:01:22;1.23;;;1.13;;
45548;SDS011;31270;48.328;10.096;2023-04-01T05:03:48;2.83;;;0.90;;
45548;SDS011;31270;48.328;10.096;2023-04-01T05:06:15;1.67;;;1.10;;
45548;SDS011;31270;48.328;10.096;2023-04-01T05:08:41;4.27;;;1.30;;
45548;SDS011;31270;48.328;10.096;2023-04-01T05:11:12;4.20;;;1.20;;
45548;SDS011;31270;48.328;10.096;2023-04-01T05:13:39;2.83;;;1.00;;
45548;SDS011;31270;48.328;10.096;2023-04-01T05:16:09;0.90;;;0.80;;
45548;SDS011;31270;48.328;10.096;2023-04-01T05:18:36;1.30;;;0.97;;
45548;SDS011;31270;48.328;10.096;2023-04-01T05:21:01;2.50;;;0.90;;
45548;SDS011;31270;48.328;10.096;2023-04-01T05:23:27;1.53;;;0.90;;
45548;SDS011;31270;48.328;10.096;2023-04-01T05:25:53;1.83;;;1.40;;
45548;SDS011;31270;48.328;10.096;2023-04-01T05:28:19;2.20;;;1.20;;
45548;SDS011;31270;48.328;10.096;2023-04-01T05:30:45;2.00;;;1.10;;
45548;SDS011;31270;48.328;10.096;2023-04-01T05:33:12;1.77;;;1.20;;
45548;SDS011;31270;48.328;10.096;2023-04-01T05:35:38;1.67;;;1.20;;
45548;SDS011;31270;48.328;10.096;2023-04-01T05:38:05;1.83;;;1.10;;
45548;SDS011;31270;48.328;10.096;2023-04-01T05:40:30;2.30;;;1.10;;
45548;SDS011;31270;48.328;10.096;2023-04-01T05:42:57;2.80;;;1.30;;
45548;SDS011;31270;48.328;10.096;2023-04-01T05:45:23;4.40;;;1.37;;
45548;SDS011;31270;48.328;10.096;2023-04-01T05:47:49;1.40;;;0.93;;
45548;SDS011;31270;48.328;10.096;2023-04-01T05:50:15;2.93;;;1.30;;
45548;SDS011;31270;48.328;10.096;2023-04-01T05:52:41;1.83;;;1.30;;
45548;SDS011;31270;48.328;10.096;2023-04-01T05:55:07;1.80;;;1.23;;
45548;SDS011;31270;48.328;10.096;2023-04-01T05:57:33;3.23;;;1.20;;
45548;SDS011;31270;48.328;10.096;2023-04-01T05:59:58;3.87;;;1.37;;
45548;SDS011;31270;48.328;10.096;2023-04-01T06:02:24;1.60;;;1.03;;
45548;SDS011;31270;48.328;10.096;2023-04-01T06:04:50;2.07;;;1.13;;
45548;SDS011;31270;48.328;10.096;2023-04-01T06:07:27;3.73;;;1.20;;
45548;SDS011;31270;48.328;10.096;2023-04-01T06:09:53;2.23;;;0.90;;
45548;SDS011;31270;48.328;10.096;2023-04-01T06:21:15;6.70;;;1.33;;
45548;SDS011;31270;48.328;10.096;2023-04-01T06:26:34;4.77;;;1.20;;
45548;SDS011;31270;48.328;10.096;2023-04-01T06:29:08;2.03;;;0.80;;
45548;SDS011;31270;48.328;10.096;2023-04-01T06:32:16;2.17;;;0.80;;
45548;SDS011;31270;48.328;10.096;2023-04-01T06:37:49;2.60;;;0.90;;
45548;SDS011;31270;48.328;10.096;2023-04-01T06:40:44;1.57;;;0.93;;
45548;SDS011;31270;48.328;10.096;2023-04-01T06:46:29;1.37;;;0.77;;
45548;SDS011;31270;48.328;10.096;2023-04-01T06:55:16;1.03;;;0.80;;
45548;SDS011;31270;48.328;10.096;2023-04-01T06:57:56;1.23;;;0.70;;
45548;SDS011;31270;48.328;10.096;2023-04-01T07:00:40;1.87;;;0.97;;
45548;SDS011;31270;48.328;10.096;2023-04-01T07:05:43;2.40;;;0.87;;
45548;SDS011;31270;48.328;10.096;2023-04-01T07:08:10;2.57;;;0.90;;
45548;SDS011;31270;48.328;10.096;2023-04-01T07:10:45;2.00;;;1.10;;
45548;SDS011;31270;48.328;10.096;2023-04-01T07:13:22;1.40;;;0.87;;
45548;SDS011;31270;48.328;10.096;2023-04-01T07:15:56;1.10;;;1.00;;
45548;SDS011;31270;48.328;10.096;2023-04-01T07:18:50;1.80;;;0.93;;
45548;SDS011;31270;48.328;10.096;2023-04-01T07:21:32;2.97;;;2.23;;
45548;SDS011;31270;48.328;10.096;2023-04-01T07:24:05;1.73;;;0.93;;
45548;SDS011;31270;48.328;10.096;2023-04-01T07:26:38;3.83;;;1.70;;
45548;SDS011;31270;48.328;10.096;2023-04-01T07:29:05;5.90;;;3.13;;
45548;SDS011;31270;48.328;10.096;2023-04-01T07:31:55;2.57;;;2.30;;
45548;SDS011;31270;48.328;10.096;2023-04-01T07:35:02;5.63;;;3.87;;
45548;SDS011;31270;48.328;10.096;2023-04-01T07:45:46;1.20;;;0.80;;
45548;SDS011;31270;48.328;10.096;2023-04-01T07:51:27;1.43;;;0.80;;
45548;SDS011;31270;48.328;10.096;2023-04-01T07:59:14;1.30;;;0.70;;
45548;SDS011;31270;48.328;10.096;2023-04-01T08:07:40;1.80;;;0.70;;
45548;SDS011;31270;48.328;10.096;2023-04-01T08:10:20;0.70;;;0.70;;
45548;SDS011;31270;48.328;10.096;2023-04-01T08:15:26;0.70;;;0.63;;
45548;SDS011;31270;48.328;10.096;2023-04-01T08:18:01;0.90;;;0.80;;
45548;SDS011;31270;48.328;10.096;2023-04-01T08:23:36;1.77;;;0.70;;
45548;SDS011;31270;48.328;10.096;2023-04-01T08:26:04;0.80;;;0.70;;
45548;SDS011;31270;48.328;10.096;2023-04-01T08:33:35;3.07;;;0.80;;
45548;SDS011;31270;48.328;10.096;2023-04-01T08:36:05;0.70;;;0.70;;
45548;SDS011;31270;48.328;10.096;2023-04-01T08:52:19;1.10;;;0.80;;
45548;SDS011;31270;48.328;10.096;2023-04-01T08:55:00;1.27;;;0.77;;
45548;SDS011;31270;48.328;10.096;2023-04-01T08:57:37;1.97;;;0.80;;
45548;SDS011;31270;48.328;10.096;2023-04-01T09:00:23;1.67;;;0.70;;
45548;SDS011;31270;48.328;10.096;2023-04-01T09:03:08;0.70;;;0.60;;
45548;SDS011;31270;48.328;10.096;2023-04-01T09:08:35;1.37;;;0.70;;
45548;SDS011;31270;48.328;10.096;2023-04-01T09:14:03;0.93;;;0.77;;
45548;SDS011;31270;48.328;10.096;2023-04-01T09:22:35;1.93;;;0.93;;
45548;SDS011;31270;48.328;10.096;2023-04-01T09:25:30;2.90;;;1.00;;
45548;SDS011;31270;48.328;10.096;2023-04-01T09:28:10;1.63;;;1.00;;
45548;SDS011;31270;48.328;10.096;2023-04-01T09:30:56;0.90;;;0.80;;
45548;SDS011;31270;48.328;10.096;2023-04-01T09:41:46;1.00;;;0.90;;
45548;SDS011;31270;48.328;10.096;2023-04-01T09:44:22;2.33;;;1.00;;
45548;SDS011;31270;48.328;10.096;2023-04-01T09:50:10;1.77;;;1.30;;
45548;SDS011;31270;48.328;10.096;2023-04-01T10:03:58;1.13;;;0.97;;
45548;SDS011;31270;48.328;10.096;2023-04-01T10:15:29;1.40;;;0.70;;
45548;SDS011;31270;48.328;10.096;2023-04-01T10:18:07;0.80;;;0.80;;
45548;SDS011;31270;48.328;10.096;2023-04-01T10:20:54;0.80;;;0.80;;
45548;SDS011;31270;48.328;10.096;2023-04-01T10:44:20;0.67;;;0.67;;
45548;SDS011;31270;48.328;10.096;2023-04-01T10:47:37;0.90;;;0.90;;
45548;SDS011;31270;48.328;10.096;2023-04-01T11:08:23;0.80;;;0.80;;
45548;SDS011;31270;48.328;10.096;2023-04-01T11:22:19;5.13;;;3.83;;
45548;SDS011;31270;48.328;10.096;2023-04-01T11:30:44;1.60;;;1.10;;
45548;SDS011;31270;48.328;10.096;2023-04-01T11:36:25;4.77;;;2.90;;
45548;SDS011;31270;48.328;10.096;2023-04-01T11:38:55;3.43;;;2.60;;
45548;SDS011;31270;48.328;10.096;2023-04-01T11:41:36;2.37;;;1.10;;
45548;SDS011;31270;48.328;10.096;2023-04-01T11:50:18;1.47;;;1.37;;
45548;SDS011;31270;48.328;10.096;2023-04-01T11:56:02;6.87;;;4.47;;
45548;SDS011;31270;48.328;10.096;2023-04-01T11:58:49;3.00;;;2.63;;
45548;SDS011;31270;48.328;10.096;2023-04-01T12:07:53;2.43;;;1.77;;
45548;SDS011;31270;48.328;10.096;2023-04-01T12:18:40;2.63;;;1.90;;
45548;SDS011;31270;48.328;10.096;2023-04-01T13:00:27;0.80;;;0.80;;
45548;SDS011;31270;48.328;10.096;2023-04-01T13:06:13;0.80;;;0.80;;
45548;SDS011;31270;48.328;10.096;2023-04-01T13:14:23;1.30;;;1.20;;
45548;SDS011;31270;48.328;10.096;2023-04-01T13:23:14;2.47;;;2.13;;
45548;SDS011;31270;48.328;10.096;2023-04-01T13:28:36;1.50;;;1.30;;
45548;SDS011;31270;48.328;10.096;2023-04-01T13:31:14;1.23;;;0.80;;
45548;SDS011;31270;48.328;10.096;2023-04-01T13:39:26;1.10;;;0.90;;
45548;SDS011;31270;48.328;10.096;2023-04-01T13:44:59;3.53;;;1.47;;
45548;SDS011;31270;48.328;10.096;2023-04-01T13:56:01;0.70;;;0.70;;
45548;SDS011;31270;48.328;10.096;2023-04-01T14:01:10;0.90;;;0.90;;
45548;SDS011;31270;48.328;10.096;2023-04-01T14:06:54;1.70;;;1.07;;
45548;SDS011;31270;48.328;10.096;2023-04-01T14:15:29;1.67;;;1.57;;
45548;SDS011;31270;48.328;10.096;2023-04-01T14:27:13;1.60;;;1.50;;
45548;SDS011;31270;48.328;10.096;2023-04-01T14:32:41;0.67;;;0.67;;
45548;SDS011;31270;48.328;10.096;2023-04-01T14:35:31;0.73;;;0.73;;
45548;SDS011;31270;48.328;10.096;2023-04-01T14:46:35;1.80;;;1.23;;
45548;SDS011;31270;48.328;10.096;2023-04-01T14:49:38;1.10;;;1.00;;
45548;SDS011;31270;48.328;10.096;2023-04-01T14:54:47;1.00;;;0.87;;
45548;SDS011;31270;48.328;10.096;2023-04-01T14:57:24;1.37;;;0.70;;
45548;SDS011;31270;48.328;10.096;2023-04-01T15:10:41;1.20;;;1.10;;
45548;SDS011;31270;48.328;10.096;2023-04-01T15:21:55;2.27;;;1.17;;
45548;SDS011;31270;48.328;10.096;2023-04-01T15:24:47;1.20;;;1.10;;
45548;SDS011;31270;48.328;10.096;2023-04-01T15:27:39;1.33;;;1.00;;
45548;SDS011;31270;48.328;10.096;2023-04-01T15:30:30;0.87;;;0.80;;
45548;SDS011;31270;48.328;10.096;2023-04-01T15:38:31;1.37;;;1.27;;
45548;SDS011;31270;48.328;10.096;2023-04-01T15:41:14;3.13;;;1.10;;
45548;SDS011;31270;48.328;10.096;2023-04-01T15:43:52;1.20;;;1.00;;
45548;SDS011;31270;48.328;10.096;2023-04-01T15:49:11;1.43;;;1.13;;
45548;SDS011;31270;48.328;10.096;2023-04-01T15:51:47;1.10;;;1.00;;
45548;SDS011;31270;48.328;10.096;2023-04-01T16:00:09;1.20;;;1.10;;
45548;SDS011;31270;48.328;10.096;2023-04-01T16:02:49;1.57;;;1.40;;
45548;SDS011;31270;48.328;10.096;2023-04-01T16:08:41;4.50;;;3.20;;
45548;SDS011;31270;48.328;10.096;2023-04-01T16:17:19;1.47;;;1.33;;
45548;SDS011;31270;48.328;10.096;2023-04-01T16:23:04;1.10;;;1.00;;
45548;SDS011;31270;48.328;10.096;2023-04-01T16:28:57;7.50;;;4.30;;
45548;SDS011;31270;48.328;10.096;2023-04-01T16:31:37;4.73;;;2.50;;
45548;SDS011;31270;48.328;10.096;2023-04-01T16:37:14;5.90;;;2.77;;
45548;SDS011;31270;48.328;10.096;2023-04-01T16:43:23;4.17;;;2.83;;
45548;SDS011;31270;48.328;10.096;2023-04-01T16:49:00;10.70;;;5.47;;
45548;SDS011;31270;48.328;10.096;2023-04-01T16:54:27;10.77;;;5.80;;
45548;SDS011;31270;48.328;10.096;2023-04-01T16:57:03;6.23;;;3.70;;
45548;SDS011;31270;48.328;10.096;2023-04-01T16:59:36;3.83;;;2.17;;
45548;SDS011;31270;48.328;10.096;2023-04-01T17:04:37;5.50;;;3.63;;
45548;SDS011;31270;48.328;10.096;2023-04-01T17:12:34;5.30;;;3.67;;
45548;SDS011;31270;48.328;10.096;2023-04-01T17:15:14;2.27;;;1.97;;
45548;SDS011;31270;48.328;10.096;2023-04-01T17:18:02;3.03;;;2.03;;
45548;SDS011;31270;48.328;10.096;2023-04-01T17:20:40;3.40;;;2.40;;
45548;SDS011;31270;48.328;10.096;2023-04-01T17:29:03;2.30;;;2.10;;
45548;SDS011;31270;48.328;10.096;2023-04-01T17:34:21;1.87;;;1.70;;
45548;SDS011;31270;48.328;10.096;2023-04-01T17:37:22;5.20;;;2.50;;
45548;SDS011;31270;48.328;10.096;2023-04-01T17:40:15;2.30;;;1.90;;
45548;SDS011;31270;48.328;10.096;2023-04-01T17:48:16;1.63;;;1.30;;
45548;SDS011;31270;48.328;10.096;2023-04-01T17:56:39;1.43;;;1.33;;
45548;SDS011;31270;48.328;10.096;2023-04-01T17:59:38;2.20;;;1.43;;
45548;SDS011;31270;48.328;10.096;2023-04-01T18:02:19;1.20;;;1.10;;
45548;SDS011;31270;48.328;10.096;2023-04-01T18:10:57;1.10;;;0.90;;
45548;SDS011;31270;48.328;10.096;2023-04-01T18:16:29;1.00;;;1.00;;
45548;SDS011;31270;48.328;10.096;2023-04-01T18:21:51;2.47;;;1.17;;
45548;SDS011;31270;48.328;10.096;2023-04-01T18:30:05;2.90;;;1.47;;
45548;SDS011;31270;48.328;10.096;2023-04-01T18:32:42;1.93;;;1.60;;
45548;SDS011;31270;48.328;10.096;2023-04-01T18:38:31;1.23;;;1.13;;
45548;SDS011;31270;48.328;10.096;2023-04-01T18:41:19;1.80;;;1.20;;
45548;SDS011;31270;48.328;10.096;2023-04-01T18:44:03;1.50;;;1.33;;
45548;SDS011;31270;48.328;10.096;2023-04-01T18:47:37;1.13;;;1.13;;
45548;SDS011;31270;48.328;10.096;2023-04-01T18:49:54;1.23;;;1.13;;
45548;SDS011;31270;48.328;10.096;2023-04-01T18:52:37;2.03;;;1.47;;
45548;SDS011;31270;48.328;10.096;2023-04-01T19:03:39;1.67;;;1.27;;
45548;SDS011;31270;48.328;10.096;2023-04-01T19:06:15;1.43;;;1.17;;
45548;SDS011;31270;48.328;10.096;2023-04-01T19:08:46;1.30;;;1.20;;
45548;SDS011;31270;48.328;10.096;2023-04-01T19:11:18;1.77;;;1.40;;
45548;SDS011;31270;48.328;10.096;2023-04-01T19:14:18;1.43;;;1.33;;
45548;SDS011;31270;48.328;10.096;2023-04-01T19:19:42;4.83;;;1.63;;
45548;SDS011;31270;48.328;10.096;2023-04-01T19:25:02;3.33;;;1.50;;
45548;SDS011;31270;48.328;10.096;2023-04-01T19:27:52;1.33;;;1.23;;
45548;SDS011;31270;48.328;10.096;2023-04-01T19:30:49;2.97;;;1.37;;
45548;SDS011;31270;48.328;10.096;2023-04-01T19:33:38;1.23;;;1.13;;
45548;SDS011;31270;48.328;10.096;2023-04-01T19:39:00;2.50;;;1.80;;
45548;SDS011;31270;48.328;10.096;2023-04-01T20:01:13;1.37;;;1.27;;
45548;SDS011;31270;48.328;10.096;2023-04-01T20:03:54;1.50;;;1.40;;
45548;SDS011;31270;48.328;10.096;2023-04-01T20:06:32;2.90;;;2.37;;
45548;SDS011;31270;48.328;10.096;2023-04-01T20:09:11;2.33;;;1.83;;
45548;SDS011;31270;48.328;10.096;2023-04-01T20:14:46;2.77;;;1.70;;
45548;SDS011;31270;48.328;10.096;2023-04-01T20:17:24;2.80;;;1.37;;
45548;SDS011;31270;48.328;10.096;2023-04-01T20:20:14;3.53;;;1.77;;
45548;SDS011;31270;48.328;10.096;2023-04-01T20:27:39;2.67;;;1.30;;
45548;SDS011;31270;48.328;10.096;2023-04-01T20:33:09;3.97;;;1.70;;
45548;SDS011;31270;48.328;10.096;2023-04-01T20:38:19;2.53;;;1.63;;
45548;SDS011;31270;48.328;10.096;2023-04-01T20:43:54;2.00;;;1.77;;
45548;SDS011;31270;48.328;10.096;2023-04-01T20:46:35;2.10;;;1.80;;
45548;SDS011;31270;48.328;10.096;2023-04-01T20:52:02;1.90;;;1.80;;
45548;SDS011;31270;48.328;10.096;2023-04-01T20:54:45;2.43;;;2.00;;
45548;SDS011;31270;48.328;10.096;2023-04-01T20:57:38;3.20;;;2.03;;
45548;SDS011;31270;48.328;10.096;2023-04-01T21:05:56;7.43;;;2.03;;
45548;SDS011;31270;48.328;10.096;2023-04-01T21:08:47;3.97;;;1.60;;
45548;SDS011;31270;48.328;10.096;2023-04-01T21:11:28;6.20;;;2.03;;
45548;SDS011;31270;48.328;10.096;2023-04-01T21:19:58;3.93;;;2.20;;
45548;SDS011;31270;48.328;10.096;2023-04-01T21:25:21;4.90;;;2.03;;
45548;SDS011;31270;48.328;10.096;2023-04-01T21:36:12;5.97;;;1.60;;
45548;SDS011;31270;48.328;10.096;2023-04-01T21:47:29;2.97;;;2.20;;
45548;SDS011;31270;48.328;10.096;2023-04-01T21:50:24;3.23;;;2.20;;
45548;SDS011;31270;48.328;10.096;2023-04-01T21:53:41;3.67;;;2.60;;
45548;SDS011;31270;48.328;10.096;2023-04-01T21:56:05;2.60;;;2.10;;
45548;SDS011;31270;48.328;10.096;2023-04-01T22:04:36;2.43;;;2.10;;
45548;SDS011;31270;48.328;10.096;2023-04-01T22:08:20;2.50;;;2.00;;
45548;SDS011;31270;48.328;10.096;2023-04-01T22:12:57;2.33;;;1.80;;
45548;SDS011;31270;48.328;10.096;2023-04-01T22:15:52;2.33;;;1.73;;
45548;SDS011;31270;48.328;10.096;2023-04-01T22:18:49;2.20;;;2.00;;
45548;SDS011;31270;48.328;10.096;2023-04-01T22:27:44;2.23;;;2.03;;
45548;SDS011;31270;48.328;10.096;2023-04-01T22:33:04;2.77;;;1.90;;
45548;SDS011;31270;48.328;10.096;2023-04-01T22:43:57;2.10;;;1.60;;
45548;SDS011;31270;48.328;10.096;2023-04-01T22:49:17;2.27;;;1.70;;
45548;SDS011;31270;48.328;10.096;2023-04-01T22:54:39;2.87;;;1.67;;
45548;SDS011;31270;48.328;10.096;2023-04-01T22:57:15;1.97;;;1.77;;
45548;SDS011;31270;48.328;10.096;2023-04-01T23:02:36;1.63;;;1.53;;
45548;SDS011;31270;48.328;10.096;2023-04-01T23:05:05;1.93;;;1.60;;
45548;SDS011;31270;48.328;10.096;2023-04-01T23:07:50;2.57;;;1.97;;
45548;SDS011;31270;48.328;10.096;2023-04-01T23:10:39;1.80;;;1.70;;
45548;SDS011;31270;48.328;10.096;2023-04-01T23:13:16;2.20;;;2.00;;
45548;SDS011;31270;48.328;10.096;2023-04-01T23:15:47;3.40;;;1.80;;
45548;SDS011;31270;48.328;10.096;2023-04-01T23:18:30;3.10;;;1.73;;
45548;SDS011;31270;48.328;10.096;2023-04-01T23:21:27;1.70;;;1.60;;
45548;SDS011;31270;48.328;10.096;2023-04-01T23:27:01;3.33;;;1.70;;
45548;SDS011;31270;48.328;10.096;2023-04-01T23:29:36;3.27;;;2.00;;
45548;SDS011;31270;48.328;10.096;2023-04-01T23:32:05;2.30;;;1.90;;
45548;SDS011;31270;48.328;10.096;2023-04-01T23:34:38;4.00;;;1.97;;
45548;SDS011;31270;48.328;10.096;2023-04-01T23:37:05;2.63;;;1.70;;
45548;SDS011;31270;48.328;10.096;2023-04-01T23:39:39;2.90;;;1.63;;
45548;SDS011;31270;48.328;10.096;2023-04-01T23:42:19;2.67;;;1.90;;
45548;SDS011;31270;48.328;10.096;2023-04-01T23:44:45;1.70;;;1.60;;
45548;SDS011;31270;48.328;10.096;2023-04-01T23:47:21;2.10;;;1.40;;
45548;SDS011;31270;48.328;10.096;2023-04-01T23:50:00;2.53;;;1.70;;
45548;SDS011;31270;48.328;10.096;2023-04-01T23:53:02;3.63;;;2.03;;
45548;SDS011;31270;48.328;10.096;2023-04-01T23:55:37;1.67;;;1.57;;
